Time;durP1;ratioP1;P1;durP2;ratioP2;P2;SDS_P1;SDS_P2;PMS_P1;PMS_P2;Temp;Humidity;BMP_temperature;BMP_pressure;BME280_temperature;BME280_humidity;BME280_pressure;Samples;Min_cycle;Max_cycle;Signal;HPM_P1;HPM_P2
2022/03/28 00:01:34;;;;;;;11.50;8.55;;;12.00;49.60;;;;;;5096812;28;20032;-67
2022/03/28 00:04:00;;;;;;;12.25;7.82;;;12.00;49.90;;;;;;5096275;28;20031;-68
2022/03/28 00:06:26;;;;;;;10.57;7.25;;;11.90;49.70;;;;;;5107457;28;20055;-67
2022/03/28 00:08:52;;;;;;;13.32;8.35;;;11.90;49.80;;;;;;5090353;28;20028;-68
2022/03/28 00:11:18;;;;;;;11.82;8.73;;;11.90;50.10;;;;;;5114621;28;20023;-67
2022/03/28 00:13:45;;;;;;;14.57;8.98;;;11.90;51.30;;;;;;5114275;28;20027;-68
2022/03/28 00:16:12;;;;;;;14.85;8.32;;;11.80;50.90;;;;;;5129744;27;20385;-68
2022/03/28 00:18:37;;;;;;;18.58;9.23;;;11.80;50.90;;;;;;5114690;28;20020;-67
2022/03/28 00:21:03;;;;;;;16.67;7.95;;;11.80;50.80;;;;;;5095946;28;20505;-68
2022/03/28 00:23:33;;;;;;;12.73;8.02;;;11.80;50.60;;;;;;5106511;28;20059;-68
2022/03/28 00:26:01;;;;;;;15.68;8.05;;;11.70;50.60;;;;;;5114507;27;20221;-69
2022/03/28 00:28:27;;;;;;;15.43;8.43;;;11.70;50.60;;;;;;5134788;27;20027;-68
2022/03/28 00:30:53;;;;;;;17.20;8.43;;;11.60;50.60;;;;;;5134906;27;20035;-68
2022/03/28 00:33:19;;;;;;;11.68;8.23;;;11.60;50.70;;;;;;5128759;27;20035;-68
2022/03/28 00:35:44;;;;;;;14.70;8.18;;;11.60;50.90;;;;;;5095099;28;20027;-67
2022/03/28 00:38:11;;;;;;;13.60;8.40;;;11.50;50.80;;;;;;5120742;27;20067;-68
2022/03/28 00:40:37;;;;;;;17.58;8.43;;;11.50;50.80;;;;;;5096753;28;20044;-68
2022/03/28 00:43:06;;;;;;;15.48;9.20;;;11.50;51.00;;;;;;5094410;28;20103;-67
2022/03/28 00:45:40;;;;;;;13.52;8.32;;;11.50;51.20;;;;;;5095746;28;20027;-67
2022/03/28 00:48:07;;;;;;;14.15;7.68;;;11.40;51.30;;;;;;5101602;27;20523;-67
2022/03/28 00:50:34;;;;;;;18.00;8.63;;;11.40;51.20;;;;;;5134316;27;20469;-67
2022/03/28 00:53:00;;;;;;;15.70;8.15;;;11.40;51.40;;;;;;5134147;27;20030;-69
2022/03/28 00:55:26;;;;;;;15.57;7.82;;;11.30;51.30;;;;;;5112932;28;20051;-67
2022/03/28 00:57:53;;;;;;;12.48;8.57;;;11.30;51.40;;;;;;5105916;28;20036;-68
2022/03/28 01:00:19;;;;;;;14.13;8.60;;;11.30;51.50;;;;;;5092825;27;20053;-68
2022/03/28 01:02:46;;;;;;;14.80;10.02;;;11.30;51.70;;;;;;5134320;27;20019;-67
2022/03/28 01:05:13;;;;;;;11.93;8.02;;;11.20;52.10;;;;;;5114566;27;20028;-67
2022/03/28 01:07:40;;;;;;;11.63;7.80;;;11.20;51.90;;;;;;5113369;28;20026;-68
2022/03/28 01:10:09;;;;;;;13.10;8.98;;;11.20;51.90;;;;;;5095333;28;20047;-68
2022/03/28 01:12:35;;;;;;;15.07;9.52;;;11.10;52.00;;;;;;5103904;27;20114;-70
2022/03/28 01:15:02;;;;;;;12.35;8.80;;;11.10;52.30;;;;;;5110727;27;20051;-67
2022/03/28 01:20:12;;;;;;;;;;;11.10;52.30;;;;;;5113620;28;20034;-68
2022/03/28 01:22:38;;;;;;;14.50;9.77;;;11.10;51.50;;;;;;5112962;28;19904;-67
2022/03/28 01:25:06;;;;;;;13.15;8.75;;;11.10;51.90;;;;;;5115789;27;20073;-68
2022/03/28 01:27:33;;;;;;;15.85;10.05;;;11.00;52.00;;;;;;5121397;28;20019;-68
2022/03/28 01:29:59;;;;;;;12.38;8.60;;;11.00;52.30;;;;;;5115511;27;20075;-67
2022/03/28 01:32:24;;;;;;;14.48;9.63;;;10.90;52.20;;;;;;5115364;28;20028;-67
2022/03/28 01:34:50;;;;;;;15.23;9.82;;;10.90;52.40;;;;;;5096275;28;20043;-68
2022/03/28 01:37:16;;;;;;;14.40;9.55;;;10.90;52.50;;;;;;5112832;28;20382;-68
2022/03/28 01:39:42;;;;;;;15.68;10.07;;;10.90;52.60;;;;;;5113518;28;20048;-67
2022/03/28 01:42:08;;;;;;;17.35;10.85;;;10.90;52.90;;;;;;5117424;28;20070;-68
2022/03/28 01:44:34;;;;;;;16.08;9.57;;;10.90;53.10;;;;;;5098644;28;20028;-68
2022/03/28 01:47:00;;;;;;;14.15;9.65;;;10.80;52.80;;;;;;5135809;27;20033;-67
2022/03/28 01:49:25;;;;;;;15.55;10.38;;;10.80;52.80;;;;;;5137583;27;20019;-67
2022/03/28 01:51:51;;;;;;;14.85;10.23;;;10.80;52.90;;;;;;5119491;27;20080;-67
2022/03/28 01:54:18;;;;;;;16.52;10.45;;;10.70;52.80;;;;;;5132123;27;20035;-68
2022/03/28 01:56:44;;;;;;;14.07;9.25;;;10.70;52.90;;;;;;5119418;27;20023;-68
2022/03/28 01:59:10;;;;;;;15.07;9.40;;;10.70;52.90;;;;;;5137518;27;20023;-67
2022/03/28 02:01:37;;;;;;;17.42;9.20;;;10.70;53.10;;;;;;5119305;27;20118;-68
2022/03/28 02:04:04;;;;;;;14.23;9.43;;;10.70;53.20;;;;;;5113612;28;20077;-67
2022/03/28 02:06:32;;;;;;;13.15;9.35;;;10.60;53.20;;;;;;5098686;28;20394;-67
2022/03/28 02:08:58;;;;;;;11.82;8.57;;;10.60;53.20;;;;;;5095770;28;20111;-67
2022/03/28 02:11:24;;;;;;;17.83;9.57;;;10.60;53.10;;;;;;5091089;27;20118;-67
2022/03/28 02:13:50;;;;;;;14.30;9.35;;;10.60;53.20;;;;;;5132366;27;20328;-67
2022/03/28 02:16:16;;;;;;;20.13;10.63;;;10.60;53.30;;;;;;5120638;27;20023;-67
2022/03/28 02:18:41;;;;;;;15.35;9.98;;;10.60;53.60;;;;;;5116959;28;20378;-68
2022/03/28 02:21:07;;;;;;;17.55;9.80;;;10.60;53.40;;;;;;5098523;28;20032;-67
2022/03/28 02:23:33;;;;;;;13.77;9.15;;;10.50;53.30;;;;;;5116216;28;20103;-67
2022/03/28 02:25:59;;;;;;;16.63;10.48;;;10.50;53.30;;;;;;5110484;28;20208;-68
2022/03/28 02:28:26;;;;;;;20.98;11.38;;;10.50;53.50;;;;;;5096414;28;20024;-67
2022/03/28 02:30:53;;;;;;;14.93;9.80;;;10.50;53.50;;;;;;5096264;28;20046;-67
2022/03/28 02:33:20;;;;;;;16.17;9.30;;;10.40;53.50;;;;;;5096138;28;20024;-68
2022/03/28 02:35:46;;;;;;;16.45;9.65;;;10.40;53.50;;;;;;5114164;28;20092;-67
2022/03/28 02:38:12;;;;;;;15.07;9.75;;;10.40;53.50;;;;;;5096055;28;20024;-71
2022/03/28 02:40:38;;;;;;;18.02;10.50;;;10.40;53.50;;;;;;5111472;27;20387;-68
2022/03/28 02:43:04;;;;;;;15.23;10.43;;;10.40;53.80;;;;;;5112194;27;20027;-67
2022/03/28 02:45:35;;;;;;;16.77;10.50;;;10.40;53.80;;;;;;5115436;27;20072;-69
2022/03/28 02:48:01;;;;;;;15.95;9.60;;;10.30;53.90;;;;;;5111923;27;20118;-68
2022/03/28 02:50:29;;;;;;;17.55;9.77;;;10.30;53.80;;;;;;5125810;27;20386;-68
2022/03/28 02:52:55;;;;;;;14.32;9.52;;;10.30;54.00;;;;;;5108773;27;20054;-68
2022/03/28 02:55:21;;;;;;;14.10;9.48;;;10.30;53.90;;;;;;5136070;27;20031;-68
2022/03/28 02:57:47;;;;;;;15.57;9.63;;;10.20;53.90;;;;;;5116739;27;20029;-68
2022/03/28 03:00:13;;;;;;;14.02;8.27;;;10.20;54.00;;;;;;5132466;27;20355;-68
2022/03/28 03:02:40;;;;;;;15.20;9.95;;;10.20;54.00;;;;;;5121878;27;20031;-68
2022/03/28 03:05:07;;;;;;;13.07;8.95;;;10.20;54.00;;;;;;5115267;27;20481;-68
2022/03/28 03:07:33;;;;;;;19.17;9.63;;;10.10;54.00;;;;;;5115341;27;20488;-68
2022/03/28 03:09:59;;;;;;;16.80;9.77;;;10.10;54.00;;;;;;5134047;27;20550;-67
2022/03/28 03:12:25;;;;;;;23.58;10.50;;;10.10;54.20;;;;;;5112124;27;20083;-69
2022/03/28 03:14:51;;;;;;;16.38;10.50;;;10.10;54.30;;;;;;5130197;27;20031;-68
2022/03/28 03:17:18;;;;;;;15.65;10.77;;;10.10;54.40;;;;;;5114920;27;20398;-68
2022/03/28 03:19:44;;;;;;;17.10;10.40;;;10.10;54.40;;;;;;5133607;27;20027;-68
2022/03/28 03:22:12;;;;;;;17.60;9.40;;;10.10;54.40;;;;;;5113338;27;20085;-67
2022/03/28 03:24:41;;;;;;;13.75;9.02;;;10.10;54.40;;;;;;5133601;27;20106;-67
2022/03/28 03:27:07;;;;;;;15.82;9.63;;;10.10;54.40;;;;;;5132923;27;20027;-70
2022/03/28 03:29:34;;;;;;;20.30;11.13;;;10.00;54.30;;;;;;5133832;27;20168;-68
2022/03/28 03:31:59;;;;;;;19.67;11.18;;;10.00;54.60;;;;;;5114738;27;20035;-67
2022/03/28 03:34:26;;;;;;;16.50;10.55;;;10.00;54.90;;;;;;5133655;27;20103;-67
2022/03/28 03:36:52;;;;;;;15.52;9.82;;;10.00;54.80;;;;;;5133367;27;20034;-67
2022/03/28 03:39:18;;;;;;;19.23;10.27;;;10.00;54.90;;;;;;5129977;27;20039;-68
2022/03/28 03:41:44;;;;;;;17.27;10.55;;;10.00;55.10;;;;;;5119224;27;20063;-69
2022/03/28 03:44:09;;;;;;;24.15;10.20;;;10.00;55.10;;;;;;5126035;27;20045;-67
2022/03/28 03:46:35;;;;;;;16.10;10.38;;;10.00;55.70;;;;;;5114786;27;20023;-69
2022/03/28 03:49:01;;;;;;;15.70;10.27;;;9.90;55.00;;;;;;5112748;27;20118;-68
2022/03/28 03:51:27;;;;;;;21.58;9.75;;;10.00;55.00;;;;;;5113673;27;20692;-67
2022/03/28 03:53:53;;;;;;;16.48;9.85;;;9.90;55.00;;;;;;5131978;27;20019;-67
2022/03/28 03:56:19;;;;;;;16.88;10.75;;;9.90;55.00;;;;;;5114965;27;20027;-68
2022/03/28 03:58:45;;;;;;;16.70;11.05;;;9.90;55.20;;;;;;5132778;27;20031;-68
2022/03/28 04:01:11;;;;;;;17.13;9.93;;;9.90;55.70;;;;;;5113462;27;20154;-68
2022/03/28 04:03:41;;;;;;;14.98;9.68;;;9.90;55.20;;;;;;5112897;27;20031;-68
2022/03/28 04:06:10;;;;;;;26.35;11.82;;;9.90;55.20;;;;;;5111581;27;20023;-67
2022/03/28 04:08:37;;;;;;;19.48;11.48;;;9.90;55.50;;;;;;5114204;27;20469;-67
2022/03/28 04:11:04;;;;;;;19.98;10.60;;;9.90;55.60;;;;;;5114388;27;20034;-67
2022/03/28 04:13:30;;;;;;;18.60;10.93;;;9.80;55.60;;;;;;5109478;27;20041;-67
2022/03/28 04:15:55;;;;;;;18.85;11.48;;;9.80;55.70;;;;;;5132045;27;20072;-67
2022/03/28 04:18:21;;;;;;;20.15;10.40;;;9.80;55.90;;;;;;5132043;27;20049;-68
2022/03/28 04:20:47;;;;;;;15.32;10.35;;;9.80;55.80;;;;;;5133177;27;20043;-68
2022/03/28 04:23:13;;;;;;;20.02;11.27;;;9.80;55.70;;;;;;5131499;27;20033;-68
2022/03/28 04:25:39;;;;;;;15.13;9.95;;;9.80;55.70;;;;;;5113788;27;20115;-67
2022/03/28 04:28:07;;;;;;;22.83;11.48;;;9.80;55.70;;;;;;5132596;27;20023;-70
2022/03/28 04:30:34;;;;;;;16.90;11.38;;;9.80;55.90;;;;;;5111674;27;20027;-68
2022/03/28 04:33:00;;;;;;;19.67;11.32;;;9.80;55.90;;;;;;5131312;27;20474;-68
2022/03/28 04:35:26;;;;;;;18.67;11.98;;;9.70;55.90;;;;;;5113411;27;20023;-67
2022/03/28 04:37:57;;;;;;;21.85;12.23;;;9.70;55.90;;;;;;5120388;27;20027;-68
2022/03/28 04:40:22;;;;;;;20.52;12.43;;;9.70;55.90;;;;;;5116941;27;20079;-67
2022/03/28 04:42:48;;;;;;;18.02;10.95;;;9.70;55.80;;;;;;5130423;27;20056;-68
2022/03/28 04:45:15;;;;;;;20.67;12.30;;;9.70;55.80;;;;;;5131948;27;20454;-68
2022/03/28 04:47:41;;;;;;;29.70;14.77;;;9.70;55.90;;;;;;5131001;27;20023;-67
2022/03/28 04:50:08;;;;;;;28.23;13.80;;;9.60;55.80;;;;;;5113314;27;20025;-70
2022/03/28 04:52:35;;;;;;;24.40;13.15;;;9.60;55.90;;;;;;5109645;27;20030;-68
2022/03/28 04:55:01;;;;;;;20.50;13.38;;;9.60;56.10;;;;;;5094543;28;20034;-67
2022/03/28 04:57:27;;;;;;;26.98;13.40;;;9.60;56.20;;;;;;5088042;28;20056;-67
2022/03/28 04:59:53;;;;;;;21.60;12.30;;;9.60;56.30;;;;;;5113257;28;20428;-68
2022/03/28 05:02:19;;;;;;;22.15;13.32;;;9.60;56.30;;;;;;5127004;27;20118;-69
2022/03/28 05:04:44;;;;;;;18.55;11.50;;;9.60;56.40;;;;;;5130314;27;20031;-70
2022/03/28 05:07:10;;;;;;;24.60;11.68;;;9.50;56.40;;;;;;5112369;27;20110;-67
2022/03/28 05:09:36;;;;;;;23.65;11.45;;;9.50;56.40;;;;;;5132952;27;20031;-67
2022/03/28 05:12:02;;;;;;;19.63;12.18;;;9.60;56.60;;;;;;5133882;27;20031;-67
2022/03/28 05:14:28;;;;;;;18.00;10.57;;;9.50;56.70;;;;;;5132843;27;20382;-68
2022/03/28 05:16:54;;;;;;;17.85;10.95;;;9.50;56.60;;;;;;5121607;27;20031;-67
2022/03/28 05:19:20;;;;;;;18.00;11.48;;;9.60;57.30;;;;;;5127442;27;20019;-68
2022/03/28 05:21:46;;;;;;;25.50;13.40;;;9.60;56.80;;;;;;5104109;28;20046;-68
2022/03/28 05:24:12;;;;;;;26.63;12.40;;;9.60;56.90;;;;;;5133564;27;20023;-67
2022/03/28 05:26:38;;;;;;;20.65;12.18;;;9.60;56.90;;;;;;5134025;27;20072;-67
2022/03/28 05:29:04;;;;;;;18.10;11.95;;;9.60;57.10;;;;;;5102162;27;20028;-67
2022/03/28 05:31:30;;;;;;;21.60;11.63;;;9.60;57.40;;;;;;5090887;28;20034;-67
2022/03/28 05:33:55;;;;;;;20.85;10.85;;;9.70;57.40;;;;;;5103666;28;20023;-67
2022/03/28 05:36:21;;;;;;;19.05;10.63;;;9.70;57.50;;;;;;5125115;28;20027;-71
2022/03/28 05:38:47;;;;;;;22.27;11.02;;;9.70;57.40;;;;;;5120281;28;20047;-68
2022/03/28 05:41:13;;;;;;;14.98;9.88;;;9.80;57.30;;;;;;5111627;28;20042;-69
2022/03/28 05:43:39;;;;;;;20.55;11.55;;;9.80;57.30;;;;;;5094934;28;20023;-69
2022/03/28 05:46:05;;;;;;;19.95;12.68;;;9.90;57.30;;;;;;5108194;28;20039;-69
2022/03/28 05:48:31;;;;;;;20.13;13.05;;;9.90;57.50;;;;;;5110761;28;20115;-69
2022/03/28 05:50:57;;;;;;;21.33;13.13;;;10.00;57.80;;;;;;5110197;28;20189;-70
2022/03/28 05:53:23;;;;;;;19.35;12.25;;;10.00;57.80;;;;;;5092390;28;20039;-69
2022/03/28 05:55:49;;;;;;;21.63;12.45;;;10.10;57.70;;;;;;5110532;28;20027;-71
2022/03/28 05:58:15;;;;;;;37.97;12.30;;;10.10;58.10;;;;;;5110746;28;20106;-70
2022/03/28 06:00:41;;;;;;;22.38;12.30;;;10.20;57.60;;;;;;5109980;28;20039;-69
2022/03/28 06:03:10;;;;;;;16.90;10.68;;;10.20;57.60;;;;;;5111164;28;20493;-69
2022/03/28 06:05:36;;;;;;;17.42;11.13;;;10.30;57.60;;;;;;5093482;28;20028;-69
2022/03/28 06:08:04;;;;;;;18.17;11.75;;;10.30;57.50;;;;;;5087134;28;20036;-70
2022/03/28 06:10:30;;;;;;;23.20;14.00;;;10.40;57.60;;;;;;5090912;28;20047;-69
2022/03/28 06:12:56;;;;;;;22.77;14.25;;;10.40;57.60;;;;;;5107091;28;20032;-71
2022/03/28 06:15:22;;;;;;;23.58;13.55;;;10.50;57.70;;;;;;5109534;28;20781;-69
2022/03/28 06:17:47;;;;;;;20.90;12.68;;;10.50;57.60;;;;;;5091156;28;20652;-69
2022/03/28 06:20:14;;;;;;;21.15;12.68;;;10.60;57.60;;;;;;5109687;28;20060;-69
2022/03/28 06:22:40;;;;;;;21.40;12.75;;;10.70;57.40;;;;;;5110212;28;20050;-69
2022/03/28 06:25:08;;;;;;;22.00;11.88;;;10.70;57.30;;;;;;5108826;28;20028;-69
2022/03/28 06:27:38;;;;;;;21.58;12.90;;;10.80;57.20;;;;;;5085563;28;20107;-68
2022/03/28 06:30:04;;;;;;;24.48;13.93;;;10.90;57.20;;;;;;5103824;28;20027;-69
2022/03/28 06:32:29;;;;;;;21.17;12.68;;;10.90;57.20;;;;;;5097983;28;20542;-69
2022/03/28 06:34:55;;;;;;;35.47;13.35;;;11.00;57.20;;;;;;5115329;28;20099;-70
2022/03/28 06:37:24;;;;;;;29.08;15.20;;;11.00;57.10;;;;;;5111037;28;20528;-69
2022/03/28 06:39:49;;;;;;;21.67;12.75;;;11.10;57.10;;;;;;5113086;28;20040;-67
2022/03/28 06:42:15;;;;;;;19.63;12.93;;;11.20;57.00;;;;;;5108672;28;20066;-70
2022/03/28 06:44:41;;;;;;;20.10;13.18;;;11.20;56.90;;;;;;5113546;28;20031;-67
2022/03/28 06:47:08;;;;;;;19.15;12.38;;;11.30;56.80;;;;;;5107572;28;20442;-68
2022/03/28 06:49:34;;;;;;;22.15;13.35;;;11.40;56.70;;;;;;5113220;28;20033;-70
2022/03/28 06:52:00;;;;;;;22.05;14.57;;;11.50;56.60;;;;;;5090236;28;20043;-68
2022/03/28 06:54:26;;;;;;;19.90;13.55;;;11.50;56.60;;;;;;5094850;28;20024;-67
2022/03/28 06:56:51;;;;;;;31.02;14.93;;;11.60;56.40;;;;;;5098247;28;20077;-67
2022/03/28 06:59:19;;;;;;;24.90;14.25;;;11.70;56.40;;;;;;5116179;28;20019;-67
2022/03/28 07:01:45;;;;;;;31.23;14.88;;;11.80;56.40;;;;;;5115835;28;20041;-67
2022/03/28 07:04:11;;;;;;;29.13;14.93;;;11.90;56.20;;;;;;5096464;28;20118;-67
2022/03/28 07:06:39;;;;;;;30.77;16.17;;;11.90;56.10;;;;;;5109859;28;20042;-66
2022/03/28 07:09:05;;;;;;;21.92;14.15;;;12.00;55.90;;;;;;5095529;28;20032;-68
2022/03/28 07:11:34;;;;;;;26.23;14.27;;;12.10;55.80;;;;;;5094874;28;20466;-68
2022/03/28 07:14:00;;;;;;;29.80;15.55;;;12.20;55.60;;;;;;5105304;28;20031;-68
2022/03/28 07:16:26;;;;;;;29.02;14.73;;;12.30;55.50;;;;;;5115421;28;20046;-68
2022/03/28 07:18:52;;;;;;;28.85;14.48;;;12.30;55.30;;;;;;5115503;28;20344;-70
2022/03/28 07:21:17;;;;;;;27.70;14.98;;;12.40;55.30;;;;;;5115035;28;20028;-68
2022/03/28 07:23:44;;;;;;;36.33;18.80;;;12.50;55.10;;;;;;5095996;28;20035;-68
2022/03/28 07:26:10;;;;;;;31.48;16.50;;;12.60;55.00;;;;;;5094752;28;20024;-68
2022/03/28 07:28:39;;;;;;;25.83;14.68;;;12.60;54.80;;;;;;5094915;28;20035;-67
2022/03/28 07:31:08;;;;;;;20.90;14.07;;;12.70;54.80;;;;;;5095055;28;20032;-68
2022/03/28 07:33:36;;;;;;;20.75;13.52;;;12.80;54.80;;;;;;5095546;28;20019;-67
2022/03/28 07:36:03;;;;;;;20.55;14.43;;;12.90;54.70;;;;;;5090565;28;21449;-67
2022/03/28 07:38:29;;;;;;;25.23;13.90;;;12.90;54.40;;;;;;5093739;27;20027;-67
2022/03/28 07:40:55;;;;;;;25.65;14.65;;;13.00;54.20;;;;;;5105101;27;20049;-68
2022/03/28 07:43:21;;;;;;;37.95;18.35;;;13.10;54.10;;;;;;5125233;27;20028;-70
2022/03/28 07:45:48;;;;;;;30.38;18.13;;;13.10;53.80;;;;;;5112351;27;20023;-67
2022/03/28 07:48:14;;;;;;;32.67;18.73;;;13.20;53.60;;;;;;5114043;27;20110;-67
2022/03/28 07:50:41;;;;;;;33.58;18.67;;;13.20;53.50;;;;;;5116342;27;20033;-69
2022/03/28 07:53:07;;;;;;;34.13;19.88;;;13.30;53.40;;;;;;5135383;27;20331;-68
2022/03/28 07:55:33;;;;;;;41.22;21.08;;;13.30;53.30;;;;;;5135661;27;20051;-70
2022/03/28 07:58:02;;;;;;;35.20;18.75;;;13.40;53.30;;;;;;5113543;28;20073;-68
2022/03/28 08:00:29;;;;;;;29.85;18.83;;;13.40;53.20;;;;;;5131647;27;20076;-69
2022/03/28 08:02:56;;;;;;;26.15;16.30;;;13.50;53.10;;;;;;5129196;27;20076;-70
2022/03/28 08:05:22;;;;;;;30.00;17.52;;;13.50;53.20;;;;;;5108750;27;20084;-68
2022/03/28 08:07:52;;;;;;;41.13;21.23;;;13.60;53.20;;;;;;5116874;27;20031;-69
2022/03/28 08:10:19;;;;;;;38.55;23.83;;;13.70;53.10;;;;;;5106356;27;20435;-69
2022/03/28 08:12:45;;;;;;;36.85;21.55;;;13.80;52.90;;;;;;5112230;27;20020;-71
2022/03/28 08:15:13;;;;;;;36.05;22.92;;;13.80;52.70;;;;;;5132660;27;20114;-68
2022/03/28 08:17:40;;;;;;;42.30;21.50;;;13.90;52.50;;;;;;5112772;27;20023;-67
2022/03/28 08:20:09;;;;;;;32.30;19.55;;;13.90;52.50;;;;;;5102189;28;20382;-69
2022/03/28 08:22:39;;;;;;;27.92;17.60;;;14.00;52.40;;;;;;5110253;27;20023;-68
2022/03/28 08:25:07;;;;;;;31.65;19.42;;;14.10;52.50;;;;;;5111815;27;20512;-69
2022/03/28 08:27:33;;;;;;;36.10;17.75;;;14.20;52.50;;;;;;5132124;27;20023;-69
2022/03/28 08:29:59;;;;;;;22.45;15.25;;;14.20;52.40;;;;;;5113529;27;20023;-69
2022/03/28 08:32:25;;;;;;;22.08;14.88;;;14.30;52.40;;;;;;5132578;27;20031;-69
2022/03/28 08:34:51;;;;;;;23.48;14.88;;;14.40;52.20;;;;;;5112998;27;20035;-68
2022/03/28 08:37:17;;;;;;;24.58;15.52;;;14.50;52.10;;;;;;5126816;27;20482;-70
2022/03/28 08:39:49;;;;;;;34.55;17.52;;;14.60;51.90;;;;;;5131466;27;20122;-69
2022/03/28 08:42:15;;;;;;;30.48;18.52;;;14.70;51.70;;;;;;5118447;27;20228;-68
2022/03/28 08:44:42;;;;;;;34.42;19.45;;;14.80;51.30;;;;;;5124095;27;20023;-69
2022/03/28 08:47:09;;;;;;;27.95;18.30;;;14.80;51.20;;;;;;5113324;27;20031;-70
2022/03/28 08:49:38;;;;;;;29.08;18.35;;;14.90;51.20;;;;;;5121054;27;20036;-68
2022/03/28 08:52:08;;;;;;;25.83;17.35;;;14.90;51.10;;;;;;5109134;28;20038;-68
2022/03/28 08:54:34;;;;;;;36.33;21.10;;;15.00;51.20;;;;;;5093919;28;20024;-68
2022/03/28 08:57:00;;;;;;;32.25;18.60;;;15.10;50.90;;;;;;5126189;27;20023;-67
2022/03/28 08:59:26;;;;;;;30.20;18.70;;;15.20;50.50;;;;;;5113848;27;20135;-68
2022/03/28 09:01:52;;;;;;;30.38;17.67;;;15.30;50.60;;;;;;5111557;27;20047;-70
2022/03/28 09:04:18;;;;;;;26.70;16.95;;;15.40;50.40;;;;;;5123705;27;20027;-67
2022/03/28 09:06:45;;;;;;;22.27;15.63;;;15.50;50.30;;;;;;5128493;27;20023;-68
2022/03/28 09:09:23;;;;;;;25.52;15.43;;;15.50;50.20;;;;;;5110473;28;20031;-70
2022/03/28 09:11:58;;;;;;;22.73;15.40;;;15.60;50.00;;;;;;5126857;27;20110;-68
2022/03/28 09:14:31;;;;;;;25.75;15.23;;;15.70;49.80;;;;;;5114605;27;20421;-69
2022/03/28 09:17:01;;;;;;;27.45;17.42;;;15.80;49.60;;;;;;5095326;28;20523;-70
2022/03/28 09:19:48;;;;;;;23.67;16.17;;;15.90;49.30;;;;;;5096499;27;20035;-68
2022/03/28 09:22:27;;;;;;;28.38;14.75;;;16.00;49.20;;;;;;5121861;27;20031;-69
2022/03/28 09:24:55;;;;;;;22.27;14.80;;;16.00;48.90;;;;;;5122534;27;20053;-69
2022/03/28 09:27:31;;;;;;;23.48;15.13;;;16.20;48.80;;;;;;5107043;28;20027;-68
2022/03/28 09:29:59;;;;;;;18.13;12.95;;;16.20;48.50;;;;;;5111749;28;20031;-68
2022/03/28 09:32:46;;;;;;;25.77;15.13;;;16.30;48.50;;;;;;5119464;27;20027;-68
2022/03/28 09:35:19;;;;;;;24.42;15.18;;;16.40;48.40;;;;;;5108805;27;20019;-69
2022/03/28 09:38:04;;;;;;;25.38;15.70;;;16.50;48.40;;;;;;5120758;28;20031;-68
2022/03/28 09:40:41;;;;;;;20.33;14.07;;;16.60;47.90;;;;;;5114797;28;20545;-69
2022/03/28 09:43:17;;;;;;;20.92;13.88;;;16.60;47.90;;;;;;5128175;28;20058;-70
2022/03/28 09:45:53;;;;;;;22.88;13.93;;;16.70;47.70;;;;;;5132627;28;20102;-69
2022/03/28 09:48:24;;;;;;;18.25;12.88;;;16.80;47.70;;;;;;5127468;28;20063;-69
2022/03/28 09:51:03;;;;;;;25.00;12.88;;;16.90;47.60;;;;;;5129281;28;20084;-71
2022/03/28 09:53:32;;;;;;;19.17;12.57;;;17.00;47.70;;;;;;5110284;28;20027;-69
2022/03/28 09:56:02;;;;;;;19.65;13.27;;;17.10;47.60;;;;;;5129123;28;20023;-68
2022/03/28 09:58:42;;;;;;;18.13;13.15;;;17.20;47.70;;;;;;5132159;28;20076;-69
2022/03/28 10:01:14;;;;;;;20.67;14.05;;;17.30;47.50;;;;;;5112053;27;20046;-69
2022/03/28 10:03:44;;;;;;;16.95;12.90;;;17.30;47.80;;;;;;5135986;27;20099;-69
2022/03/28 10:06:10;;;;;;;23.98;13.90;;;17.40;47.20;;;;;;5129401;27;20019;-70
2022/03/28 10:08:37;;;;;;;18.90;13.18;;;17.50;47.30;;;;;;5135140;27;20020;-70
2022/03/28 10:11:04;;;;;;;19.63;13.80;;;17.60;46.80;;;;;;5115275;27;20042;-70
2022/03/28 10:13:30;;;;;;;23.58;14.35;;;17.70;46.80;;;;;;5118544;27;20031;-68
2022/03/28 10:16:00;;;;;;;18.77;12.23;;;17.80;46.40;;;;;;5137671;27;20437;-68
2022/03/28 10:18:34;;;;;;;18.60;13.25;;;17.80;46.30;;;;;;5132655;27;20023;-69
2022/03/28 10:21:15;;;;;;;19.40;13.45;;;17.90;46.20;;;;;;5132424;27;20386;-71
2022/03/28 10:23:55;;;;;;;18.55;12.60;;;18.00;46.00;;;;;;5116441;27;20043;-70
2022/03/28 10:26:29;;;;;;;17.73;12.05;;;18.10;45.80;;;;;;5108809;27;20031;-70
2022/03/28 10:29:07;;;;;;;16.40;11.88;;;18.20;45.80;;;;;;5108601;27;20406;-71
2022/03/28 10:31:34;;;;;;;16.75;12.05;;;18.20;45.50;;;;;;5131986;27;20089;-70
2022/03/28 10:34:02;;;;;;;17.42;12.40;;;18.30;45.20;;;;;;5106652;27;20416;-70
2022/03/28 10:36:34;;;;;;;16.58;11.50;;;18.40;45.30;;;;;;5113726;27;20029;-71
2022/03/28 10:39:33;;;;;;;15.60;10.65;;;18.40;44.90;;;;;;5132783;27;20092;-71
2022/03/28 10:42:23;;;;;;;14.32;10.43;;;18.50;44.90;;;;;;5137765;27;20121;-70
2022/03/28 10:45:02;;;;;;;15.10;9.27;;;18.60;44.80;;;;;;5123557;27;20028;-70
2022/03/28 10:47:51;;;;;;;14.77;10.18;;;18.70;44.40;;;;;;5114205;27;20160;-73
2022/03/28 10:50:28;;;;;;;12.02;9.00;;;18.80;43.70;;;;;;5091490;28;20020;-70
2022/03/28 10:53:40;;;;;;;15.35;9.32;;;18.90;43.20;;;;;;5124606;27;20489;-69
2022/03/28 10:56:27;;;;;;;12.48;8.15;;;19.00;43.20;;;;;;5119418;27;20470;-69
2022/03/28 10:58:55;;;;;;;11.52;7.70;;;19.00;42.90;;;;;;5130474;27;20030;-69
2022/03/28 11:01:36;;;;;;;12.60;8.65;;;19.10;42.50;;;;;;5135720;27;20027;-69
2022/03/28 11:04:23;;;;;;;12.43;8.50;;;19.20;41.70;;;;;;5103702;28;20031;-69
2022/03/28 11:06:59;;;;;;;15.82;8.10;;;19.20;40.80;;;;;;5116300;27;20039;-69
2022/03/28 11:09:45;;;;;;;16.15;8.52;;;19.30;40.90;;;;;;5115937;27;20023;-70
2022/03/28 11:12:12;;;;;;;17.42;8.57;;;19.30;41.00;;;;;;5123893;27;20036;-69
2022/03/28 11:14:43;;;;;;;12.70;7.78;;;19.40;40.90;;;;;;5127369;27;20106;-69
2022/03/28 11:17:24;;;;;;;13.50;8.40;;;19.40;40.80;;;;;;5121185;27;20019;-70
2022/03/28 11:20:18;;;;;;;13.88;9.70;;;19.50;40.10;;;;;;5111430;27;20027;-69
2022/03/28 11:23:07;;;;;;;17.92;8.90;;;19.60;40.20;;;;;;5114708;27;20070;-72
2022/03/28 11:25:46;;;;;;;15.48;8.05;;;19.70;40.10;;;;;;5121993;27;20043;-70
2022/03/28 11:28:16;;;;;;;12.82;8.45;;;19.70;39.10;;;;;;5122380;27;20032;-70
2022/03/28 11:30:45;;;;;;;15.20;7.95;;;19.80;39.20;;;;;;5132917;27;20045;-69
2022/03/28 11:33:13;;;;;;;14.90;7.95;;;19.80;38.90;;;;;;5121639;27;20053;-70
2022/03/28 11:35:49;;;;;;;16.02;8.10;;;19.90;39.40;;;;;;5113951;27;20027;-69
2022/03/28 11:38:19;;;;;;;14.77;8.63;;;19.90;38.70;;;;;;5115597;27;20059;-70
2022/03/28 11:40:45;;;;;;;14.13;8.45;;;20.00;37.80;;;;;;5126361;27;20047;-71
2022/03/28 11:43:11;;;;;;;17.00;9.05;;;20.00;37.90;;;;;;5123933;27;20053;-70
2022/03/28 11:45:46;;;;;;;33.72;8.60;;;20.10;38.00;;;;;;5116718;27;20507;-70
2022/03/28 11:48:12;;;;;;;14.02;9.88;;;20.10;37.90;;;;;;5122176;27;20359;-69
2022/03/28 11:50:38;;;;;;;18.38;9.23;;;20.20;37.40;;;;;;5097847;28;20054;-72
2022/03/28 11:53:04;;;;;;;14.95;9.32;;;20.30;37.10;;;;;;5119828;27;20432;-69
2022/03/28 11:55:30;;;;;;;16.65;9.48;;;20.30;37.20;;;;;;5100976;28;20024;-70
2022/03/28 11:58:16;;;;;;;26.95;9.55;;;20.30;36.30;;;;;;5134797;27;20027;-69
2022/03/28 12:00:48;;;;;;;13.15;8.73;;;20.40;35.70;;;;;;5121918;27;20118;-69
2022/03/28 12:03:16;;;;;;;16.58;9.13;;;20.40;35.50;;;;;;5112881;27;20031;-69
2022/03/28 12:05:45;;;;;;;18.85;9.90;;;20.50;35.40;;;;;;5128689;27;20031;-69
2022/03/28 12:08:21;;;;;;;13.25;8.25;;;20.50;35.20;;;;;;5125216;27;20388;-70
2022/03/28 12:10:52;;;;;;;18.52;9.77;;;20.50;35.70;;;;;;5111999;27;20478;-70
2022/03/28 12:13:19;;;;;;;13.98;8.25;;;20.60;35.30;;;;;;5125628;27;20386;-69
2022/03/28 12:15:48;;;;;;;15.50;9.07;;;20.60;35.20;;;;;;5120956;27;20019;-69
2022/03/28 12:18:15;;;;;;;14.73;8.80;;;20.70;34.70;;;;;;5120656;27;20030;-70
2022/03/28 12:20:44;;;;;;;21.27;8.48;;;20.70;34.80;;;;;;5131167;27;20482;-69
2022/03/28 12:23:12;;;;;;;15.82;8.98;;;20.80;35.10;;;;;;5128484;27;20497;-69
2022/03/28 12:25:51;;;;;;;15.60;7.90;;;20.80;34.50;;;;;;5108938;27;20072;-69
2022/03/28 12:28:25;;;;;;;14.88;8.88;;;20.90;34.80;;;;;;5106659;27;20032;-69
2022/03/28 12:30:58;;;;;;;12.07;7.87;;;20.90;34.40;;;;;;5110788;27;20039;-68
2022/03/28 12:33:39;;;;;;;14.02;8.13;;;21.00;34.10;;;;;;5099178;28;20024;-69
2022/03/28 12:36:07;;;;;;;14.07;8.30;;;21.00;33.10;;;;;;5125026;27;20098;-69
2022/03/28 12:38:41;;;;;;;17.63;8.25;;;21.00;32.30;;;;;;5136317;27;20552;-69
2022/03/28 12:41:11;;;;;;;15.40;8.07;;;21.10;32.50;;;;;;5134165;27;20039;-69
2022/03/28 12:43:38;;;;;;;13.88;8.60;;;21.10;32.30;;;;;;5135069;27;20023;-69